Time;durP1;ratioP1;P1;durP2;ratioP2;P2;SDS_P1;SDS_P2;PMS_P1;PMS_P2;Temp;Humidity;BMP_temperature;BMP_pressure;BME280_temperature;BME280_humidity;BME280_pressure;Samples;Min_cycle;Max_cycle;Signal;HPM_P1;HPM_P2
2021/08/31 03:47:39;;;;;;;;;;;;;;;;;;4858503;29;20073;-85
2021/08/31 03:50:05;;;;;;;7.70;3.67;;;;;;;;;;4842674;29;20393;-85
2021/08/31 03:52:30;;;;;;;9.40;3.80;;;;;;;;;;4826288;29;20029;-84
2021/08/31 03:55:08;;;;;;;7.63;3.83;;;;;;;;;;4815674;29;20082;-85
2021/08/31 03:57:33;;;;;;;6.85;3.75;;;;;;;;;;4809491;29;20085;-86
2021/08/31 03:59:59;;;;;;;8.50;4.67;;;;;;;;;;4845435;23;20050;-80
2021/08/31 04:02:24;;;;;;;9.03;4.37;;;;;;;;;;4808844;29;20037;-81
2021/08/31 04:04:49;;;;;;;7.80;3.90;;;;;;;;;;4809322;29;20125;-83
2021/08/31 04:07:15;;;;;;;9.00;3.87;;;;;;;;;;4809218;29;20105;-83
2021/08/31 04:09:40;;;;;;;6.47;3.60;;;;;;;;;;4824746;29;20051;-83
2021/08/31 04:12:06;;;;;;;6.87;3.53;;;;;;;;;;4809294;29;20113;-84
2021/08/31 04:14:32;;;;;;;8.77;3.73;;;;;;;;;;4808822;29;20138;-83
2021/08/31 04:16:57;;;;;;;7.90;3.63;;;;;;;;;;4839673;29;20102;-83
2021/08/31 04:19:23;;;;;;;8.20;4.00;;;;;;;;;;4809461;29;20032;-83
2021/08/31 04:21:48;;;;;;;9.13;3.97;;;;;;;;;;4809008;29;20651;-83
2021/08/31 04:24:13;;;;;;;8.77;3.90;;;;;;;;;;4809534;29;20034;-83
2021/08/31 04:26:39;;;;;;;7.60;4.07;;;;;;;;;;4808855;29;20117;-84
2021/08/31 04:29:04;;;;;;;6.77;4.10;;;;;;;;;;4809098;29;20038;-84
2021/08/31 04:31:29;;;;;;;9.13;4.43;;;;;;;;;;4809146;29;20401;-82
2021/08/31 04:33:55;;;;;;;10.17;4.53;;;;;;;;;;4824248;29;20125;-83
2021/08/31 04:36:20;;;;;;;7.00;3.90;;;;;;;;;;4809078;29;20116;-83
2021/08/31 04:38:45;;;;;;;8.17;4.60;;;;;;;;;;4808812;29;20058;-83
2021/08/31 04:41:11;;;;;;;8.90;4.53;;;;;;;;;;4808741;29;20066;-83
2021/08/31 04:43:36;;;;;;;8.27;4.70;;;;;;;;;;4809137;29;20121;-83
2021/08/31 04:46:02;;;;;;;6.87;3.77;;;;;;;;;;4811314;29;20090;-83
2021/08/31 04:48:27;;;;;;;7.77;4.13;;;;;;;;;;4812344;29;20037;-84
2021/08/31 04:50:53;;;;;;;12.97;4.83;;;;;;;;;;4827435;29;20029;-84
2021/08/31 04:53:20;;;;;;;9.93;4.77;;;;;;;;;;4812307;29;20040;-84
2021/08/31 04:55:45;;;;;;;10.68;5.25;;;;;;;;;;4812361;29;20384;-84
2021/08/31 04:58:10;;;;;;;10.20;5.23;;;;;;;;;;4827200;29;20060;-83
2021/08/31 05:00:36;;;;;;;9.13;5.00;;;;;;;;;;4793865;29;20539;-83
2021/08/31 05:03:01;;;;;;;11.07;5.17;;;;;;;;;;4808643;29;20026;-83
2021/08/31 05:05:27;;;;;;;8.43;4.60;;;;;;;;;;4808878;29;20476;-82
2021/08/31 05:07:52;;;;;;;11.30;4.70;;;;;;;;;;4808975;29;20035;-83
2021/08/31 05:10:17;;;;;;;9.63;4.90;;;;;;;;;;4808605;29;20120;-83
2021/08/31 05:12:43;;;;;;;10.07;5.57;;;;;;;;;;4808636;29;20058;-82
2021/08/31 05:15:08;;;;;;;9.73;5.20;;;;;;;;;;4808955;29;20473;-83
2021/08/31 05:17:34;;;;;;;9.77;5.03;;;;;;;;;;4808720;29;20030;-83
2021/08/31 05:20:00;;;;;;;9.80;5.10;;;;;;;;;;4811122;29;20078;-83
2021/08/31 05:22:26;;;;;;;9.30;5.17;;;;;;;;;;4826576;29;20117;-83
2021/08/31 05:24:52;;;;;;;;;;;;;;;;;;4812222;29;20022;-83
2021/08/31 05:27:17;;;;;;;14.35;7.20;;;;;;;;;;4826580;29;19972;-83
2021/08/31 05:29:43;;;;;;;9.73;5.70;;;;;;;;;;4811442;29;20044;-87
2021/08/31 05:32:08;;;;;;;9.47;5.27;;;;;;;;;;4811489;29;20034;-83
2021/08/31 05:34:34;;;;;;;11.63;5.10;;;;;;;;;;4811732;29;20040;-82
2021/08/31 05:36:59;;;;;;;12.17;5.30;;;;;;;;;;4811607;29;20065;-84
2021/08/31 05:39:32;;;;;;;12.30;5.87;;;;;;;;;;4811539;29;20037;-85
2021/08/31 05:41:57;;;;;;;12.88;6.45;;;;;;;;;;4812056;29;20090;-85
2021/08/31 05:44:23;;;;;;;10.63;6.50;;;;;;;;;;4811448;29;20518;-84
2021/08/31 05:46:48;;;;;;;12.60;5.83;;;;;;;;;;4811500;29;20132;-84
2021/08/31 05:49:13;;;;;;;12.23;6.47;;;;;;;;;;4826363;29;20116;-83
2021/08/31 05:51:39;;;;;;;11.70;5.60;;;;;;;;;;4810963;29;20603;-84
2021/08/31 05:54:04;;;;;;;10.63;5.40;;;;;;;;;;4811296;29;20129;-86
2021/08/31 05:56:29;;;;;;;12.93;6.20;;;;;;;;;;4810551;29;20117;-83
2021/08/31 05:58:55;;;;;;;11.13;6.10;;;;;;;;;;4825903;29;20077;-83
2021/08/31 06:01:20;;;;;;;11.43;6.10;;;;;;;;;;4826156;29;20045;-81
2021/08/31 06:03:47;;;;;;;10.13;5.60;;;;;;;;;;4811059;29;20117;-81
2021/08/31 06:06:14;;;;;;;;;;;;;;;;;;4826771;29;20033;-81
2021/08/31 06:08:39;;;;;;;10.20;5.43;;;;;;;;;;4841177;29;20398;-82
2021/08/31 06:11:04;;;;;;;12.73;5.47;;;;;;;;;;4810669;29;20038;-82
2021/08/31 06:13:30;;;;;;;13.53;7.33;;;;;;;;;;4810897;29;20394;-82
2021/08/31 06:15:55;;;;;;;23.23;10.33;;;;;;;;;;4810907;29;20032;-82
2021/08/31 06:18:20;;;;;;;18.90;8.33;;;;;;;;;;4810856;29;20138;-82
2021/08/31 06:21:46;;;;;;;15.70;6.70;;;;;;;;;;4810203;29;20113;-87
2021/08/31 06:25:03;;;;;;;11.38;5.90;;;;;;;;;;4823301;29;20031;-85
2021/08/31 06:31:48;;;;;;;8.68;4.85;;;;;;;;;;4821544;29;20122;-87
2021/08/31 07:05:10;;;;;;;6.85;3.63;;;;;;;;;;4826378;29;20056;-85
2021/08/31 07:07:56;;;;;;;6.45;3.60;;;;;;;;;;4821271;29;20070;-86
2021/08/31 07:24:29;;;;;;;6.88;3.17;;;;;;;;;;4803257;29;20042;-86
2021/08/31 07:44:07;;;;;;;4.88;2.90;;;;;;;;;;4802979;29;20407;-88
2021/08/31 07:53:59;;;;;;;8.60;3.50;;;;;;;;;;4803451;29;20148;-87
2021/08/31 07:56:25;;;;;;;6.32;3.80;;;;;;;;;;4817731;29;20557;-82
2021/08/31 07:58:50;;;;;;;5.67;3.33;;;;;;;;;;4829855;29;20117;-82
2021/08/31 08:01:15;;;;;;;5.77;3.00;;;;;;;;;;4821521;29;20113;-81
2021/08/31 08:03:41;;;;;;;6.57;3.73;;;;;;;;;;4806580;29;20113;-83
2021/08/31 08:06:06;;;;;;;5.80;3.23;;;;;;;;;;4806345;29;20117;-82
2021/08/31 08:08:31;;;;;;;6.07;3.40;;;;;;;;;;4807658;29;20529;-82
2021/08/31 08:10:57;;;;;;;5.33;3.20;;;;;;;;;;4809244;29;20129;-82
2021/08/31 08:13:23;;;;;;;5.73;3.10;;;;;;;;;;4809385;29;20029;-83
2021/08/31 08:15:48;;;;;;;6.47;3.10;;;;;;;;;;4824854;29;20113;-83
2021/08/31 08:18:13;;;;;;;5.00;2.93;;;;;;;;;;4809224;29;20029;-83
2021/08/31 08:20:42;;;;;;;6.40;3.10;;;;;;;;;;4810931;29;20117;-84
2021/08/31 08:23:07;;;;;;;5.65;2.92;;;;;;;;;;4843564;29;20030;-85
2021/08/31 08:25:33;;;;;;;6.80;3.30;;;;;;;;;;4812879;29;20030;-83
2021/08/31 08:27:58;;;;;;;6.70;3.77;;;;;;;;;;4812677;29;20042;-83
2021/08/31 08:30:23;;;;;;;6.10;3.40;;;;;;;;;;4812522;29;20128;-83
2021/08/31 08:32:49;;;;;;;8.23;3.47;;;;;;;;;;4812328;29;20116;-84
2021/08/31 08:35:14;;;;;;;6.77;3.17;;;;;;;;;;4851712;29;20376;-84
2021/08/31 08:37:40;;;;;;;8.07;3.57;;;;;;;;;;4842648;29;20443;-84
2021/08/31 08:40:06;;;;;;;7.03;3.90;;;;;;;;;;4839707;29;20034;-84
2021/08/31 08:42:31;;;;;;;8.15;4.03;;;;;;;;;;4824340;29;20030;-83
2021/08/31 08:44:56;;;;;;;8.20;4.10;;;;;;;;;;4839789;29;20034;-82
2021/08/31 08:47:22;;;;;;;10.23;4.20;;;;;;;;;;4814390;29;20040;-82
2021/08/31 08:49:49;;;;;;;8.30;4.17;;;;;;;;;;4808498;29;20030;-82
2021/08/31 08:52:14;;;;;;;9.75;5.00;;;;;;;;;;4812304;29;20106;-84
2021/08/31 08:54:40;;;;;;;9.00;4.60;;;;;;;;;;4796731;29;20065;-83
2021/08/31 10:07:28;;;;;;;8.20;3.75;;;;;;;;;;4877788;29;20059;-84
2021/08/31 10:10:03;;;;;;;7.55;3.58;;;;;;;;;;4870696;29;20037;-84
2021/08/31 10:12:55;;;;;;;;;;;;;;;;;;4842354;29;20101;-84
2021/08/31 10:15:25;;;;;;;8.30;3.28;;;;;;;;;;4842435;29;19912;-84
2021/08/31 10:18:09;;;;;;;7.32;3.60;;;;;;;;;;4842089;29;20109;-84
2021/08/31 10:24:51;;;;;;;7.07;3.40;;;;;;;;;;4858339;29;20053;-85
2021/08/31 11:18:47;;;;;;;5.32;2.75;;;;;;;;;;4763657;30;20049;-86
2021/08/31 11:46:13;;;;;;;6.63;3.17;;;;;;;;;;4723783;30;20091;-85
2021/08/31 11:52:45;;;;;;;5.75;3.47;;;;;;;;;;4769827;29;20545;-84
2021/08/31 11:55:25;;;;;;;5.57;3.15;;;;;;;;;;4783128;29;20053;-84
2021/08/31 11:58:25;;;;;;;7.28;3.40;;;;;;;;;;4808837;29;20045;-84
2021/08/31 12:01:42;;;;;;;4.85;3.08;;;;;;;;;;4857722;29;20523;-85
2021/08/31 12:11:11;;;;;;;7.53;3.38;;;;;;;;;;4812209;29;20156;-86
2021/08/31 13:19:24;;;;;;;5.95;3.40;;;;;;;;;;4771636;30;20526;-85
2021/08/31 19:12:42;;;;;;;8.50;4.57;;;;;;;;;;4859294;29;20822;-84
2021/08/31 19:15:15;;;;;;;10.57;5.18;;;;;;;;;;4862703;29;20048;-85
2021/08/31 19:17:48;;;;;;;10.30;4.90;;;;;;;;;;4846289;29;20072;-85
2021/08/31 19:20:18;;;;;;;10.18;5.20;;;;;;;;;;4842668;29;20033;-84
2021/08/31 19:22:50;;;;;;;10.05;5.40;;;;;;;;;;4854822;29;20113;-84
2021/08/31 19:25:17;;;;;;;12.20;5.40;;;;;;;;;;4852494;29;20029;-84
2021/08/31 19:27:46;;;;;;;9.77;5.15;;;;;;;;;;4818105;29;20061;-85
2021/08/31 19:30:17;;;;;;;10.32;5.30;;;;;;;;;;4830275;29;20389;-86
2021/08/31 19:33:43;;;;;;;9.68;4.75;;;;;;;;;;4824190;29;20085;-85
2021/08/31 20:00:21;;;;;;;10.15;4.63;;;;;;;;;;4769573;30;20057;-87
2021/08/31 20:16:55;;;;;;;10.15;4.85;;;;;;;;;;4867920;29;20049;-87
2021/08/31 20:42:39;;;;;;;10.18;5.13;;;;;;;;;;4865933;29;20048;-84
2021/08/31 20:45:06;;;;;;;11.75;5.55;;;;;;;;;;4853748;29;20052;-85
2021/08/31 20:47:37;;;;;;;13.07;5.35;;;;;;;;;;4836136;29;20029;-84
2021/08/31 20:50:02;;;;;;;11.88;5.63;;;;;;;;;;4834962;29;20124;-84
2021/08/31 20:52:28;;;;;;;12.00;5.57;;;;;;;;;;4836709;29;20032;-85
2021/08/31 20:54:53;;;;;;;10.83;5.40;;;;;;;;;;4847079;29;20052;-85
2021/08/31 20:57:18;;;;;;;84.10;6.23;;;;;;;;;;4838809;29;20029;-84
2021/08/31 20:59:44;;;;;;;23.27;5.63;;;;;;;;;;4838037;29;20024;-84
